Time;durP1;ratioP1;P1;durP2;ratioP2;P2;SDS_P1;SDS_P2;PMS_P1;PMS_P2;Temp;Humidity;BMP_temperature;BMP_pressure;BME280_temperature;BME280_humidity;BME280_pressure;Samples;Min_cycle;Max_cycle;Signal;HPM_P1;HPM_P2
2022/06/13 00:02:06;;;;;;;;;1.67;1.67;;;;;19.20;41.22;102079.66;5059364;28;45418;-60
2022/06/13 00:04:31;;;;;;;;;5.00;1.67;;;;;19.21;41.33;102077.84;5052028;28;60302;-60
2022/06/13 00:06:56;;;;;;;;;2.00;1.00;;;;;19.20;41.67;102090.44;5060632;28;73145;-60
2022/06/13 00:09:22;;;;;;;;;2.00;2.00;;;;;19.16;41.34;102089.81;5057839;28;72018;-60
2022/06/13 00:11:47;;;;;;;;;1.67;1.33;;;;;19.13;41.70;102090.00;5059314;28;62426;-60
2022/06/13 00:14:13;;;;;;;;;2.00;1.33;;;;;19.14;41.62;102091.72;5047736;28;60172;-60
2022/06/13 00:16:38;;;;;;;;;3.33;2.33;;;;;19.13;41.58;102087.28;5060696;28;45343;-60
2022/06/13 00:19:04;;;;;;;;;3.00;1.67;;;;;19.11;41.65;102083.84;5054869;28;60022;-60
2022/06/13 00:21:32;;;;;;;;;1.00;1.00;;;;;19.12;41.99;102088.25;5058279;28;53125;-59
2022/06/13 00:24:00;;;;;;;;;4.33;2.67;;;;;19.10;41.87;102081.22;5060909;27;45355;-60
2022/06/13 00:26:26;;;;;;;;;1.00;1.00;;;;;19.06;42.05;102077.03;5059643;28;46045;-59
2022/06/13 00:28:52;;;;;;;;;1.67;1.67;;;;;19.03;42.16;102088.88;5074359;28;45543;-59
2022/06/13 00:31:18;;;;;;;;;2.00;2.00;;;;;18.97;42.19;102084.75;5050026;28;45452;-60
2022/06/13 00:33:43;;;;;;;;;1.00;1.00;;;;;18.96;41.93;102082.16;5053184;28;45684;-59
2022/06/13 00:36:09;;;;;;;;;3.33;2.00;;;;;18.96;42.46;102083.00;5057808;28;67668;-59
2022/06/13 00:38:37;;;;;;;;;0.67;0.67;;;;;18.94;42.41;102084.97;5055578;28;45303;-59
2022/06/13 00:41:09;;;;;;;;;1.00;1.00;;;;;18.90;42.31;102080.72;5063772;28;45510;-59
2022/06/13 00:43:35;;;;;;;;;1.67;1.67;;;;;18.87;42.64;102074.66;5056585;28;45578;-59
2022/06/13 00:46:01;;;;;;;;;3.00;1.33;;;;;18.85;42.58;102075.59;5063171;28;48228;-59
2022/06/13 00:48:28;;;;;;;;;1.00;1.00;;;;;18.84;42.73;102076.56;5052436;28;45309;-59
2022/06/13 00:50:56;;;;;;;;;2.00;1.00;;;;;18.87;42.87;102063.88;5070659;27;45402;-59
2022/06/13 00:53:25;;;;;;;;;1.00;1.00;;;;;18.85;42.70;102063.94;5058409;28;45332;-59
2022/06/13 00:56:10;;;;;;;;;1.00;1.00;;;;;18.75;42.75;102065.53;5059355;28;46381;-59
2022/06/13 00:58:39;;;;;;;;;2.00;1.00;;;;;18.69;43.28;102058.69;5057820;28;45294;-59
2022/06/13 01:01:05;;;;;;;;;1.00;1.00;;;;;18.71;43.39;102058.59;5055210;28;45422;-59
2022/06/13 01:03:32;;;;;;;;;4.00;2.33;;;;;18.73;43.27;102059.38;5058469;28;65551;-59
2022/06/13 01:06:00;;;;;;;;;3.33;3.33;;;;;18.73;43.64;102057.53;5055021;28;46250;-59
2022/06/13 01:08:27;;;;;;;;;1.00;1.00;;;;;18.71;43.14;102059.47;5065826;28;45414;-59
2022/06/13 01:11:16;;;;;;;;;1.33;1.33;;;;;18.72;43.47;102061.22;5059332;28;45545;-59
2022/06/13 01:13:55;;;;;;;;;2.67;1.67;;;;;18.65;43.40;102051.78;5039374;28;45363;-59
2022/06/13 01:16:35;;;;;;;;;3.00;1.67;;;;;18.63;43.60;102051.00;5054664;28;45419;-59
2022/06/13 01:19:17;;;;;;;;;5.33;1.33;;;;;18.59;44.19;102047.66;5049641;28;45355;-59
2022/06/13 01:22:06;;;;;;;;;5.67;2.67;;;;;18.56;43.69;102046.97;5046631;28;45348;-59
2022/06/13 01:24:41;;;;;;;;;2.00;2.00;;;;;18.55;43.93;102048.81;5070731;28;45291;-59
2022/06/13 01:27:30;;;;;;;;;4.00;2.33;;;;;18.54;44.54;102043.50;5059368;28;46270;-60
2022/06/13 01:30:11;;;;;;;;;3.33;2.67;;;;;18.43;44.16;102036.13;5054662;28;45240;-59
2022/06/13 01:32:36;;;;;;;;;3.33;2.33;;;;;18.35;44.63;102040.19;5059121;28;45426;-59
2022/06/13 01:35:24;;;;;;;;;2.67;2.33;;;;;18.26;44.45;102034.50;5059001;28;45378;-59
2022/06/13 01:38:07;;;;;;;;;3.00;3.00;;;;;18.21;44.75;102037.47;5058044;28;46350;-59
2022/06/13 01:41:10;;;;;;;;;2.00;2.00;;;;;18.12;45.03;102036.25;5061868;27;45406;-59
2022/06/13 01:43:58;;;;;;;;;3.33;2.33;;;;;18.12;45.47;102047.03;5057427;28;45343;-59
2022/06/13 01:46:33;;;;;;;;;5.33;4.00;;;;;18.02;45.45;102040.47;5062188;28;45382;-59
2022/06/13 01:49:20;;;;;;;;;3.33;3.33;;;;;18.02;45.30;102045.84;5057609;28;46401;-59
2022/06/13 01:51:52;;;;;;;;;2.00;2.00;;;;;18.00;45.43;102051.34;5053978;28;45226;-59
2022/06/13 01:54:23;;;;;;;;;3.33;3.33;;;;;18.01;46.14;102053.03;5058695;28;45401;-59
2022/06/13 01:57:06;;;;;;;;;6.67;3.33;;;;;18.01;45.99;102053.03;5057943;28;45311;-59
2022/06/13 01:59:49;;;;;;;;;4.67;3.67;;;;;18.02;45.68;102045.84;5076218;28;46269;-59
2022/06/13 02:02:42;;;;;;;;;5.00;5.00;;;;;18.00;45.80;102045.06;5047208;28;45360;-59
2022/06/13 02:05:28;;;;;;;;;5.00;4.00;;;;;17.96;45.79;102047.09;5061885;28;45323;-59
2022/06/13 02:07:58;;;;;;;;;5.67;4.67;;;;;17.90;46.54;102047.44;5050716;28;45578;-59
2022/06/13 02:10:30;;;;;;;;;8.67;4.33;;;;;17.90;46.28;102052.84;5073395;27;47188;-59
2022/06/13 02:13:01;;;;;;;;;6.67;4.67;;;;;17.88;46.54;102045.81;5058473;28;45303;-59
2022/06/13 02:15:39;;;;;;;;;5.67;4.67;;;;;17.83;46.83;102052.34;5056899;28;45405;-59
2022/06/13 02:18:23;;;;;;;;;6.00;4.00;;;;;17.81;46.70;102051.56;5071857;27;45351;-59
2022/06/13 02:20:52;;;;;;;;;6.00;5.00;;;;;17.73;47.18;102050.28;5062794;28;45340;-59
2022/06/13 02:23:21;;;;;;;;;6.00;5.00;;;;;17.69;46.60;102042.41;5071510;28;45370;-59
2022/06/13 02:26:00;;;;;;;;;7.33;6.67;;;;;17.72;47.27;102043.16;5066629;27;45359;-59
2022/06/13 02:28:50;;;;;;;;;8.33;5.00;;;;;17.69;47.46;102041.53;5061080;28;45367;-59
2022/06/13 02:31:18;;;;;;;;;3.33;2.67;;;;;17.64;47.04;102035.59;5059457;28;45497;-59
2022/06/13 02:33:49;;;;;;;;;6.33;4.00;;;;;17.62;47.60;102042.88;5065487;28;45354;-59
2022/06/13 02:36:19;;;;;;;;;3.67;3.33;;;;;17.62;47.17;102046.41;5055180;28;45503;-59
2022/06/13 02:38:57;;;;;;;;;6.33;3.33;;;;;17.63;47.46;102045.47;5057953;28;45462;-59
2022/06/13 02:41:26;;;;;;;;;6.67;5.00;;;;;17.62;47.65;102040.19;5050880;28;45521;-59
2022/06/13 02:43:59;;;;;;;;;5.00;4.00;;;;;17.62;48.40;102048.25;5057939;28;45590;-59
2022/06/13 02:46:31;;;;;;;;;7.67;5.00;;;;;17.52;48.31;102037.16;5058935;28;45354;-59
2022/06/13 02:49:17;;;;;;;;;4.67;3.00;;;;;17.44;47.94;102039.47;5055903;28;45484;-59
2022/06/13 02:51:56;;;;;;;;;5.00;4.33;;;;;17.44;48.39;102042.16;5065132;28;46002;-59
2022/06/13 02:54:33;;;;;;;;;4.00;3.67;;;;;17.45;48.19;102039.34;5056242;28;45524;-59
2022/06/13 03:00:19;;;;;;;;;2.67;2.67;;;;;17.43;48.51;102037.72;5055603;28;45410;-59
2022/06/13 03:03:09;;;;;;;;;4.33;4.00;;;;;17.42;48.50;102046.78;5045014;28;46224;-60
2022/06/13 03:05:59;;;;;;;;;6.00;4.00;;;;;17.42;48.34;102053.00;5086493;27;45357;-60
2022/06/13 03:08:43;;;;;;;;;4.00;3.33;;;;;17.42;49.09;102046.78;5053382;28;45454;-59
2022/06/13 03:11:20;;;;;;;;;3.33;3.33;;;;;17.31;49.09;102048.28;5057055;28;45538;-60
2022/06/13 03:14:19;;;;;;;;;4.00;4.00;;;;;17.32;48.87;102051.81;5050798;28;46474;-60
2022/06/13 03:17:00;;;;;;;;;6.00;3.67;;;;;17.33;49.42;102057.09;5053245;28;45547;-59
2022/06/13 03:19:36;;;;;;;;;4.33;3.33;;;;;17.30;48.79;102054.59;5060236;28;45306;-60
2022/06/13 03:22:08;;;;;;;;;5.00;4.00;;;;;17.34;49.00;102064.22;5066660;28;45426;-60
2022/06/13 03:24:36;;;;;;;;;3.67;3.33;;;;;17.39;48.88;102061.25;5055059;28;46166;-60
2022/06/13 03:27:08;;;;;;;;;4.33;2.67;;;;;17.44;49.05;102063.66;5058941;28;45738;-59
2022/06/13 03:29:38;;;;;;;;;3.00;2.67;;;;;17.44;48.91;102060.97;5061242;28;45539;-60
2022/06/13 03:32:12;;;;;;;;;3.00;3.00;;;;;17.43;49.08;102065.50;5060077;28;45267;-60
2022/06/13 03:34:41;;;;;;;;;4.33;4.33;;;;;17.45;49.18;102073.47;5058093;28;45505;-60
2022/06/13 03:37:14;;;;;;;;;7.00;4.00;;;;;17.43;48.88;102078.06;5060642;27;45420;-60
2022/06/13 03:39:41;;;;;;;;;6.00;2.67;;;;;17.44;48.76;102078.00;5054009;28;45421;-60
2022/06/13 03:42:12;;;;;;;;;3.67;3.67;;;;;17.46;49.27;102084.13;5058455;28;45553;-60
2022/06/13 03:44:59;;;;;;;;;3.33;3.00;;;;;17.48;48.81;102084.91;5059287;28;46546;-60
2022/06/13 03:47:32;;;;;;;;;6.33;4.33;;;;;17.46;48.82;102089.50;5065274;28;45339;-60
2022/06/13 03:50:07;;;;;;;;;3.00;3.00;;;;;17.46;48.93;102088.66;5061182;28;45382;-60
2022/06/13 03:52:34;;;;;;;;;2.67;2.67;;;;;17.44;49.24;102079.81;5050987;28;45291;-59
2022/06/13 03:55:11;;;;;;;;;5.67;4.00;;;;;17.38;48.96;102080.16;5062532;28;45439;-60
2022/06/13 03:57:42;;;;;;;;;4.33;4.00;;;;;17.36;49.37;102080.25;5049711;28;45804;-60
2022/06/13 04:00:17;;;;;;;;;5.00;4.00;;;;;17.29;49.64;102078.88;5052135;28;45288;-60
2022/06/13 04:02:44;;;;;;;;;6.00;3.00;;;;;17.23;49.01;102080.09;5057127;28;45740;-60
2022/06/13 04:05:20;;;;;;;;;2.00;2.00;;;;;17.25;49.72;102080.00;5057006;28;45380;-59
2022/06/13 04:07:46;;;;;;;;;4.00;4.00;;;;;17.27;49.36;102078.94;5049644;28;45479;-60
2022/06/13 04:10:15;;;;;;;;;2.67;2.67;;;;;17.28;49.50;102079.84;5074225;27;67865;-60
2022/06/13 04:13:19;;;;;;;;;4.00;4.00;;;;;17.24;49.72;102080.97;5064674;27;45494;-60
2022/06/13 04:16:00;;;;;;;;;5.67;5.00;;;;;17.15;49.60;102087.75;5055716;28;45560;-60
2022/06/13 04:18:44;;;;;;;;;5.00;5.00;;;;;17.12;50.77;102085.25;5054706;28;45379;-60
2022/06/13 04:21:40;;;;;;;;;7.00;4.00;;;;;17.10;49.87;102084.44;5061349;28;45595;-60
2022/06/13 04:24:11;;;;;;;;;5.33;5.00;;;;;17.10;50.05;102076.38;5047202;28;45381;-59
2022/06/13 04:26:40;;;;;;;;;7.67;4.67;;;;;17.11;50.29;102084.34;5080104;27;46423;-59
2022/06/13 04:29:21;;;;;;;;;4.67;4.00;;;;;17.16;50.61;102082.28;5074224;27;45300;-59
2022/06/13 04:31:48;;;;;;;;;5.00;3.67;;;;;17.11;50.06;102086.19;5053136;28;45359;-60
2022/06/13 04:34:21;;;;;;;;;7.33;4.00;;;;;17.05;50.17;102089.22;5062090;28;45622;-60
2022/06/13 04:36:47;;;;;;;;;5.00;5.00;;;;;17.01;50.40;102094.78;5058661;28;45386;-58
2022/06/13 04:39:15;;;;;;;;;5.00;5.00;;;;;17.02;50.47;102087.56;5081719;27;45508;-59
2022/06/13 04:41:44;;;;;;;;;5.00;3.33;;;;;16.99;50.50;102094.00;5048521;28;45347;-58
2022/06/13 04:44:15;;;;;;;;;4.00;3.00;;;;;16.99;50.60;102090.44;5057675;28;45791;-59
2022/06/13 04:46:42;;;;;;;;;3.67;3.67;;;;;17.03;50.94;102094.69;5058486;28;45410;-59
2022/06/13 04:49:29;;;;;;;;;6.67;4.67;;;;;17.00;52.12;102103.78;5058280;28;46814;-59
2022/06/13 04:51:55;;;;;;;;;5.00;5.00;;;;;16.94;50.90;102101.44;5038692;28;45386;-59
2022/06/13 04:54:27;;;;;;;;;3.00;2.00;;;;;16.95;51.03;102103.19;5050009;28;45536;-59
2022/06/13 04:56:57;;;;;;;;;9.00;5.00;;;;;16.99;51.37;102095.81;5058617;28;46827;-59
2022/06/13 04:59:23;;;;;;;;;4.67;4.67;;;;;17.05;51.35;102102.66;5057080;28;45331;-59
2022/06/13 05:01:49;;;;;;;;;4.67;4.00;;;;;17.08;51.13;102100.69;5057453;28;67234;-59
2022/06/13 05:04:18;;;;;;;;;7.67;5.00;;;;;17.05;51.25;102099.97;5059622;28;45314;-59
2022/06/13 05:06:52;;;;;;;;;7.00;5.33;;;;;17.10;51.09;102105.97;5081307;27;45420;-59
2022/06/13 05:09:23;;;;;;;;;3.67;3.67;;;;;17.10;51.54;102111.34;5057257;28;45690;-60
2022/06/13 05:12:12;;;;;;;;;9.33;6.00;;;;;17.11;50.84;102105.88;5073604;27;45461;-59
2022/06/13 05:15:07;;;;;;;;;9.00;6.67;;;;;17.18;50.91;102114.44;5064144;28;45319;-59
2022/06/13 05:17:50;;;;;;;;;4.00;4.00;;;;;17.20;50.86;102115.22;5053461;28;46231;-59
2022/06/13 05:20:31;;;;;;;;;6.00;2.33;;;;;17.18;50.64;102117.13;5052627;28;45362;-59
2022/06/13 05:23:07;;;;;;;;;6.00;4.00;;;;;17.20;51.24;102117.91;5045694;28;45338;-59
2022/06/13 05:25:37;;;;;;;;;5.00;4.00;;;;;17.18;51.08;102120.69;5037788;28;45346;-59
2022/06/13 05:28:03;;;;;;;;;7.00;4.00;;;;;17.20;51.55;102121.47;5061517;27;45798;-59
2022/06/13 05:30:28;;;;;;;;;6.33;6.33;;;;;17.22;51.50;102116.00;5056086;28;45430;-59
2022/06/13 05:32:55;;;;;;;;;7.00;5.67;;;;;17.20;51.49;102116.09;5052498;28;45516;-58
2022/06/13 05:35:23;;;;;;;;;3.33;3.33;;;;;17.21;51.50;102119.66;5043521;28;45651;-59
2022/06/13 05:37:51;;;;;;;;;4.00;4.00;;;;;17.24;51.49;102127.53;5072860;27;45778;-59
2022/06/13 05:40:18;;;;;;;;;6.67;4.00;;;;;17.25;51.75;102123.03;5049079;28;47402;-59
2022/06/13 05:42:44;;;;;;;;;6.33;6.33;;;;;17.23;52.17;102128.50;5046058;28;45446;-59
2022/06/13 05:45:18;;;;;;;;;6.67;5.00;;;;;17.24;52.41;102126.69;5043909;28;45631;-59
2022/06/13 05:47:46;;;;;;;;;8.67;4.00;;;;;17.36;51.97;102128.66;5048153;28;45567;-59
2022/06/13 05:50:16;;;;;;;;;3.00;3.00;;;;;17.44;51.64;102130.91;5072434;27;46619;-59
2022/06/13 05:52:42;;;;;;;;;3.33;3.00;;;;;17.51;51.99;102126.91;5061797;28;45317;-59
2022/06/13 05:55:07;;;;;;;;;9.33;5.00;;;;;17.46;52.43;102129.00;5058995;28;45268;-59
2022/06/13 05:57:33;;;;;;;;;4.33;4.33;;;;;17.36;52.45;102132.22;5055336;28;46891;-59
2022/06/13 05:59:58;;;;;;;;;8.00;5.00;;;;;17.36;51.84;102134.91;5063976;28;49058;-59
2022/06/13 06:02:24;;;;;;;;;7.67;4.67;;;;;17.40;52.01;102137.41;5049552;28;69511;-59
2022/06/13 06:04:49;;;;;;;;;5.00;5.00;;;;;17.44;52.03;102139.84;5057848;28;45442;-59
2022/06/13 06:07:14;;;;;;;;;5.33;5.00;;;;;17.44;52.15;102141.66;5057345;28;72757;-59
2022/06/13 06:09:40;;;;;;;;;6.00;4.67;;;;;17.46;52.07;102145.13;5051036;28;67780;-59
2022/06/13 06:12:05;;;;;;;;;5.00;5.00;;;;;17.49;51.95;102145.81;5051912;28;45367;-59
2022/06/13 06:14:30;;;;;;;;;6.33;5.33;;;;;17.54;52.26;102140.16;5067566;27;45668;-59
2022/06/13 06:16:56;;;;;;;;;6.33;6.33;;;;;17.56;52.76;102135.56;5051219;28;71697;-54
2022/06/13 06:19:22;;;;;;;;;8.67;5.33;;;;;17.65;52.56;102145.78;5059312;28;45438;-48
2022/06/13 06:21:47;;;;;;;;;4.33;4.33;;;;;17.68;52.55;102155.50;5047853;27;45379;-49
2022/06/13 06:24:13;;;;;;;;;4.00;4.00;;;;;17.73;53.55;102157.91;5054411;28;45835;-51
2022/06/13 06:26:38;;;;;;;;;7.00;5.00;;;;;17.89;52.66;102156.06;5063804;28;64836;-55
2022/06/13 06:29:03;;;;;;;;;5.67;5.33;;;;;17.93;52.66;102154.94;5057182;28;59526;-53
2022/06/13 06:31:29;;;;;;;;;8.00;6.67;;;;;17.80;52.60;102154.78;5061384;28;45556;-54
2022/06/13 06:33:54;;;;;;;;;8.33;6.00;;;;;17.84;52.51;102152.78;5057675;28;45169;-53
2022/06/13 06:36:19;;;;;;;;;5.00;4.33;;;;;17.97;52.73;102158.31;5056601;28;46078;-54
2022/06/13 06:38:45;;;;;;;;;8.33;5.67;;;;;18.01;52.36;102155.34;5056311;28;45363;-52
2022/06/13 06:41:11;;;;;;;;;8.00;7.00;;;;;18.18;52.06;102162.41;5051669;28;45561;-54
2022/06/13 06:43:37;;;;;;;;;10.00;6.00;;;;;18.35;52.29;102156.00;5055343;28;45393;-55
2022/06/13 06:46:02;;;;;;;;;8.67;6.00;;;;;18.57;52.03;102159.19;5046940;28;50132;-56
2022/06/13 06:48:28;;;;;;;;;8.00;6.67;;;;;18.88;51.58;102168.88;5053417;28;63442;-56
2022/06/13 06:50:53;;;;;;;;;7.67;6.00;;;;;19.19;51.05;102166.94;5045779;28;45406;-53
2022/06/13 06:53:21;;;;;;;;;5.67;4.00;;;;;19.50;50.07;102171.19;5058563;28;45333;-54
2022/06/13 07:01:17;;;;;;;;;5.00;3.00;;;;;20.19;49.20;102174.75;5065611;28;45566;-55
2022/06/13 07:03:43;;;;;;;;;5.67;4.33;;;;;20.47;48.44;102171.81;5063596;28;45638;-57
2022/06/13 07:06:10;;;;;;;;;1.67;1.67;;;;;20.78;48.24;102168.81;5059122;28;46570;-56
2022/06/13 07:08:38;;;;;;;;;5.00;5.00;;;;;20.97;47.46;102171.03;5060718;28;45350;-57
2022/06/13 07:13:51;;;;;;;;;5.00;5.00;;;;;21.44;46.71;102166.66;5052789;28;45780;-55
2022/06/13 07:16:16;;;;;;;;;6.00;3.00;;;;;21.69;45.81;102166.69;5053624;28;50758;-54
2022/06/13 07:18:42;;;;;;;;;6.00;5.00;;;;;21.89;45.31;102176.88;5040916;28;45467;-56
2022/06/13 07:21:08;;;;;;;;;6.00;3.00;;;;;22.11;44.72;102169.78;5058787;28;45398;-57
2022/06/13 07:23:34;;;;;;;;;6.00;3.00;;;;;22.33;44.69;102178.94;5060488;28;45230;-57
2022/06/13 07:25:59;;;;;;;;;4.67;2.67;;;;;22.52;43.42;102173.84;5060284;28;54871;-57
2022/06/13 07:28:24;;;;;;;;;4.00;4.00;;;;;22.71;42.69;102177.78;5060218;28;66921;-57
2022/06/13 07:30:50;;;;;;;;;3.50;3.50;;;;;22.85;42.09;102166.69;5059755;28;66491;-57
2022/06/13 07:33:15;;;;;;;;;3.33;3.00;;;;;23.11;41.86;102171.81;5061045;28;47353;-57
2022/06/13 07:35:40;;;;;;;;;2.33;2.33;;;;;23.39;41.63;102173.16;5059589;28;66453;-57
2022/06/13 07:38:17;;;;;;;;;4.33;3.00;;;;;23.70;41.32;102167.88;5060001;28;66748;-58
2022/06/13 07:40:45;;;;;;;;;4.00;4.00;;;;;24.04;39.96;102167.72;5048496;28;45398;-58
2022/06/13 07:43:26;;;;;;;;;4.33;2.33;;;;;24.37;39.77;102170.38;5055619;28;45556;-58
2022/06/13 07:45:52;;;;;;;;;2.00;2.00;;;;;24.68;39.38;102165.84;5060385;28;46247;-57
2022/06/13 07:48:18;;;;;;;;;3.50;2.00;;;;;25.08;38.49;102173.13;5059113;28;45693;-58
2022/06/13 07:50:43;;;;;;;;;2.75;2.75;;;;;25.47;37.90;102163.34;5060116;28;45413;-57
2022/06/13 07:53:09;;;;;;;;;4.00;2.75;;;;;25.86;37.78;102171.50;5060508;28;45304;-57
2022/06/13 07:55:34;;;;;;;;;3.00;2.00;;;;;26.23;35.68;102168.03;5059409;28;53971;-57
2022/06/13 07:58:00;;;;;;;;;3.00;2.75;;;;;26.67;35.69;102171.03;5058127;28;73012;-58
2022/06/13 08:00:30;;;;;;;;;2.00;2.00;;;;;27.16;33.92;102170.81;5059506;28;45292;-57
2022/06/13 08:02:56;;;;;;;;;1.00;0.50;;;;;27.65;33.58;102175.97;5060110;28;45370;-58
2022/06/13 08:05:22;;;;;;;;;1.25;1.25;;;;;28.07;32.49;102185.41;5058359;28;64436;-58
2022/06/13 08:07:47;;;;;;;;;2.25;2.25;;;;;28.51;32.00;102187.22;5057913;28;45307;-58
2022/06/13 08:10:13;;;;;;;;;1.50;1.50;;;;;28.96;31.32;102186.09;5059406;28;45552;-58
2022/06/13 08:12:40;;;;;;;;;3.00;2.75;;;;;29.42;30.43;102179.41;5063422;27;45735;-58
2022/06/13 08:15:06;;;;;;;;;4.50;2.50;;;;;29.82;30.31;102184.06;5058313;28;45620;-58
2022/06/13 08:17:31;;;;;;;;;1.50;1.50;;;;;30.30;29.34;102180.66;5060042;28;45438;-58
2022/06/13 08:19:57;;;;;;;;;4.00;1.75;;;;;30.83;29.29;102179.13;5057427;28;65885;-58
2022/06/13 08:22:22;;;;;;;;;4.25;3.00;;;;;31.41;28.78;102181.56;5058853;28;69240;-58
2022/06/13 08:24:48;;;;;;;;;1.50;1.00;;;;;31.82;26.53;102180.44;5060300;28;46959;-58
2022/06/13 08:27:13;;;;;;;;;3.00;1.25;;;;;32.09;26.33;102181.72;5060411;28;45689;-58
2022/06/13 08:29:39;;;;;;;;;3.25;1.50;;;;;32.42;25.74;102191.56;5057937;28;45164;-58
2022/06/13 08:32:04;;;;;;;;;2.75;1.00;;;;;32.75;24.77;102189.31;5059522;28;65040;-58
2022/06/13 08:34:30;;;;;;;;;3.75;3.75;;;;;33.11;25.11;102188.47;5059405;28;45624;-59
2022/06/13 08:36:56;;;;;;;;;2.00;0.25;;;;;33.51;23.99;102190.03;5057716;28;45324;-59
2022/06/13 08:39:22;;;;;;;;;2.00;2.00;;;;;33.87;23.94;102191.88;5057527;28;45319;-58
2022/06/13 08:41:57;;;;;;;;;0.75;0.25;;;;;34.14;23.13;102187.41;5053632;28;46334;-59
2022/06/13 08:44:38;;;;;;;;;3.00;1.75;;;;;34.52;23.18;102192.56;5056958;28;47199;-59
2022/06/13 08:47:22;;;;;;;;;0.50;0.50;;;;;34.96;22.74;102184.94;5059904;28;45295;-59
2022/06/13 08:49:56;;;;;;;;;2.00;2.00;;;;;35.24;21.73;102184.84;5060943;27;45263;-58
2022/06/13 08:52:25;;;;;;;;;1.75;1.75;;;;;35.48;21.69;102174.28;5058982;28;45327;-59
2022/06/13 08:55:00;;;;;;;;;2.75;1.75;;;;;35.84;21.42;102184.09;5059780;28;45395;-59
2022/06/13 08:57:27;;;;;;;;;2.00;2.00;;;;;36.08;20.65;102184.53;5058970;28;45375;-59
2022/06/13 09:00:06;;;;;;;;;1.00;1.00;;;;;36.18;19.81;102187.72;5075268;27;45794;-60
2022/06/13 09:02:46;;;;;;;;;4.00;2.50;;;;;35.92;19.86;102192.19;5053506;28;45645;-59
2022/06/13 09:05:21;;;;;;;;;4.00;2.75;;;;;34.94;20.09;102193.47;5054576;28;45459;-59
2022/06/13 09:07:52;;;;;;;;;1.00;1.00;;;;;34.57;20.85;102186.44;5047934;28;45453;-59
2022/06/13 09:10:41;;;;;;;;;2.00;2.00;;;;;34.86;20.71;102190.00;5058640;28;45343;-59
2022/06/13 09:13:22;;;;;;;;;4.50;2.50;;;;;35.43;21.00;102190.66;5048850;28;45145;-58
2022/06/13 09:15:54;;;;;;;;;3.50;2.00;;;;;35.89;18.35;102187.09;5058380;28;46331;-59
2022/06/13 09:18:22;;;;;;;;;1.00;1.00;;;;;36.17;19.71;102176.88;5059127;28;45369;-59
2022/06/13 09:21:11;;;;;;;;;1.50;1.50;;;;;36.70;19.74;102187.81;5048218;28;45391;-59
2022/06/13 09:23:57;;;;;;;;;0.75;0.75;;;;;37.03;18.94;102191.56;5066897;28;45459;-59
2022/06/13 09:26:32;;;;;;;;;2.33;2.33;;;;;37.12;18.86;102189.34;5052982;28;47159;-58
2022/06/13 09:29:16;;;;;;;;;2.00;2.00;;;;;37.31;17.86;102188.41;5072965;27;45462;-59
2022/06/13 09:31:45;;;;;;;;;0.00;0.00;;;;;37.54;17.79;102193.38;5053281;28;45388;-59
2022/06/13 09:34:26;;;;;;;;;4.00;1.00;;;;;37.81;17.83;102193.22;5050497;28;45334;-59
2022/06/13 09:37:01;;;;;;;;;0.00;0.00;;;;;38.09;17.60;102182.72;5048448;28;46315;-59
2022/06/13 09:39:26;;;;;;;;;2.00;1.00;;;;;38.19;17.26;102189.44;5057474;28;45328;-59
2022/06/13 09:42:05;;;;;;;;;5.00;4.00;;;;;38.35;17.16;102182.44;5055652;28;46024;-59
2022/06/13 09:44:36;;;;;;;;;2.33;1.67;;;;;38.52;17.23;102182.69;5029988;28;45401;-59
2022/06/13 09:47:44;;;;;;;;;1.67;1.67;;;;;38.55;16.84;102181.38;5059091;28;46224;-59
2022/06/13 09:50:13;;;;;;;;;4.00;2.00;;;;;38.72;16.51;102188.06;5057607;28;45350;-60
2022/06/13 09:53:04;;;;;;;;;1.00;1.00;;;;;38.88;15.81;102205.19;5057145;28;45287;-60
2022/06/13 09:55:41;;;;;;;;;2.00;0.00;;;;;38.64;15.92;102193.03;5043079;28;45459;-60
2022/06/13 09:58:17;;;;;;;;;1.00;1.00;;;;;38.39;16.12;102185.63;5050131;28;47138;-60
2022/06/13 10:00:47;;;;;;;;;2.00;1.33;;;;;38.34;16.34;102189.09;5055353;28;45391;-60
2022/06/13 10:03:39;;;;;;;;;2.33;1.00;;;;;38.41;16.44;102183.47;5059155;28;45714;-60
2022/06/13 10:06:36;;;;;;;;;2.00;1.00;;;;;38.56;16.25;102174.75;5056770;28;45337;-60
2022/06/13 10:09:08;;;;;;;;;1.00;1.00;;;;;38.64;15.98;102176.38;5054994;28;46413;-60
2022/06/13 10:11:51;;;;;;;;;2.00;2.00;;;;;38.67;16.31;102176.75;5055415;28;45341;-60
2022/06/13 10:14:41;;;;;;;;;2.67;2.00;;;;;38.53;15.87;102180.78;5065690;27;45371;-60
2022/06/13 10:17:20;;;;;;;;;1.00;1.00;;;;;38.29;16.04;102174.19;5052275;28;45478;-60
2022/06/13 10:19:58;;;;;;;;;2.33;2.00;;;;;38.19;16.20;102183.88;5057566;28;46280;-60
2022/06/13 10:22:29;;;;;;;;;1.00;0.33;;;;;37.97;16.15;102177.91;5051084;28;45329;-60
2022/06/13 10:24:55;;;;;;;;;2.00;2.00;;;;;37.98;16.36;102179.63;5055891;28;45430;-60
2022/06/13 10:27:27;;;;;;;;;2.00;2.00;;;;;38.04;16.23;102184.25;5054456;28;45674;-60
2022/06/13 10:30:05;;;;;;;;;2.67;2.33;;;;;37.81;16.35;102175.69;5057752;28;47235;-60
2022/06/13 10:32:39;;;;;;;;;2.00;2.00;;;;;37.50;16.26;102185.75;5061571;28;45402;-60
2022/06/13 10:35:13;;;;;;;;;1.00;1.00;;;;;37.35;16.19;102189.69;5053142;28;45387;-60
2022/06/13 10:38:02;;;;;;;;;4.00;1.00;;;;;37.19;16.66;102179.09;5058935;28;45371;-59
2022/06/13 10:40:28;;;;;;;;;4.00;2.33;;;;;36.83;16.67;102180.53;5059434;28;45378;-59
2022/06/13 10:42:53;;;;;;;;;3.00;2.00;;;;;36.56;16.24;102188.94;5053902;28;45311;-59
2022/06/13 10:45:19;;;;;;;;;2.00;1.50;;;;;36.32;16.65;102177.44;5051790;28;45478;-60
2022/06/13 10:47:53;;;;;;;;;1.00;1.00;;;;;36.18;17.49;102168.34;5048731;28;45414;-60
2022/06/13 10:50:25;;;;;;;;;0.00;0.00;;;;;36.23;17.30;102173.22;5073883;27;45312;-60
2022/06/13 10:52:53;;;;;;;;;5.75;1.25;;;;;36.46;17.90;102169.16;5059448;28;45382;-59
2022/06/13 10:55:22;;;;;;;;;1.75;1.75;;;;;36.66;17.21;102171.84;5051267;28;45417;-59
2022/06/13 10:58:02;;;;;;;;;2.00;1.00;;;;;36.63;16.66;102175.06;5060369;28;45204;-59
2022/06/13 11:00:29;;;;;;;;;1.75;1.75;;;;;36.43;17.14;102170.44;5051177;28;46294;-59
2022/06/13 11:03:16;;;;;;;;;5.00;1.25;;;;;36.23;17.46;102164.91;5060130;28;45358;-59
2022/06/13 11:05:57;;;;;;;;;1.50;0.50;;;;;36.14;16.92;102157.91;5053275;28;45251;-60
2022/06/13 11:08:23;;;;;;;;;2.00;1.00;;;;;36.05;17.32;102157.25;5056549;28;45320;-60
2022/06/13 11:10:57;;;;;;;;;1.00;1.00;;;;;36.04;17.61;102155.59;5059453;28;46050;-59
2022/06/13 11:13:26;;;;;;;;;2.00;2.00;;;;;35.96;17.69;102153.88;5076793;27;45365;-61
2022/06/13 11:24:55;;;;;;;;;1.00;1.00;;;;;35.03;17.93;102158.22;5071986;27;45527;-59
2022/06/13 11:27:41;;;;;;;;;1.75;1.50;;;;;34.61;18.02;102151.84;5055520;28;45466;-59
2022/06/13 11:30:38;;;;;;;;;3.75;1.75;;;;;34.06;18.66;102152.53;5055527;28;45385;-59
2022/06/13 11:33:06;;;;;;;;;2.00;2.00;;;;;33.57;18.84;102153.38;5051443;28;47162;-59
2022/06/13 11:35:37;;;;;;;;;1.75;1.75;;;;;33.18;19.15;102154.66;5052682;28;45300;-58
2022/06/13 11:38:12;;;;;;;;;3.25;2.00;;;;;32.75;19.40;102164.53;5059449;28;45377;-59
2022/06/13 11:40:38;;;;;;;;;1.50;0.75;;;;;32.42;20.10;102155.78;5058803;28;45568;-59
2022/06/13 11:43:03;;;;;;;;;2.00;2.00;;;;;32.09;19.75;102153.38;5049510;28;74718;-58
2022/06/13 11:45:29;;;;;;;;;3.00;1.00;;;;;31.82;19.95;102148.31;5052482;28;57869;-58
2022/06/13 11:47:54;;;;;;;;;2.75;2.00;;;;;31.65;20.47;102141.22;5058446;28;66647;-58
2022/06/13 11:50:28;;;;;;;;;3.00;2.00;;;;;31.39;20.73;102152.56;5059296;28;68258;-59
2022/06/13 11:55:57;;;;;;;;;7.75;2.75;;;;;30.74;21.26;102140.88;5058003;28;45438;-57
2022/06/13 11:58:26;;;;;;;;;2.25;1.00;;;;;30.41;21.11;102149.22;5056049;28;45279;-59
2022/06/13 12:00:53;;;;;;;;;1.25;1.25;;;;;30.13;21.53;102144.13;5081256;27;45564;-58
2022/06/13 12:03:25;;;;;;;;;2.75;2.25;;;;;29.94;22.07;102151.69;5050735;28;45428;-58
2022/06/13 12:06:06;;;;;;;;;3.75;2.50;;;;;29.83;22.26;102139.19;5060132;28;45500;-58
2022/06/13 12:08:31;;;;;;;;;3.00;1.00;;;;;29.73;22.43;102133.00;5056021;28;45346;-58
2022/06/13 12:10:58;;;;;;;;;1.25;1.25;;;;;29.74;22.63;102128.38;5058535;28;45257;-58
2022/06/13 12:13:24;;;;;;;;;1.00;1.00;;;;;29.73;22.30;102133.00;5059943;28;46137;-58